createdAt,value
2019-05-04T00:00:15.135Z,6.00
2019-05-04T00:01:37.183Z,2.90
2019-05-04T00:02:45.783Z,6.37
2019-05-04T00:03:51.361Z,4.23
2019-05-04T00:05:17.459Z,4.73
2019-05-04T00:06:21.935Z,5.63
2019-05-04T00:07:26.345Z,3.50
2019-05-04T00:08:32.065Z,4.23
2019-05-04T00:09:38.448Z,4.83
2019-05-04T00:10:44.776Z,3.33
2019-05-04T00:11:50.407Z,3.57
2019-05-04T00:12:55.096Z,5.57
2019-05-04T00:13:59.504Z,7.33
2019-05-04T00:15:05.454Z,6.20
2019-05-04T00:16:10.212Z,4.60
2019-05-04T00:17:14.686Z,4.33
2019-05-04T00:18:19.303Z,5.63
2019-05-04T00:19:24.619Z,5.10
2019-05-04T00:20:30.203Z,6.57
2019-05-04T00:21:34.784Z,5.67
2019-05-04T00:22:39.630Z,5.07
2019-05-04T00:23:45.098Z,5.53
2019-05-04T00:24:49.843Z,4.20
2019-05-04T00:25:54.599Z,4.77
2019-05-04T00:26:59.205Z,3.77
2019-05-04T00:28:05.455Z,4.87
2019-05-04T00:29:10.389Z,4.13
2019-05-04T00:30:15.756Z,2.70
2019-05-04T00:31:20.294Z,4.97
2019-05-04T00:32:30.629Z,3.20
2019-05-04T00:33:46.445Z,7.43
2019-05-04T00:35:08.320Z,4.10
2019-05-04T00:36:16.189Z,5.63
2019-05-04T00:37:21.252Z,4.10
2019-05-04T00:38:25.695Z,5.43
2019-05-04T00:39:36.918Z,4.43
2019-05-04T00:40:41.359Z,4.63
2019-05-04T00:41:46.037Z,4.47
2019-05-04T00:42:50.360Z,4.30
2019-05-04T00:43:55.085Z,6.47
2019-05-04T00:44:59.491Z,5.77
2019-05-04T00:46:04.980Z,4.03
2019-05-04T00:47:09.641Z,5.03
2019-05-04T00:48:15.083Z,5.70
2019-05-04T00:49:19.598Z,4.97
2019-05-04T00:50:25.306Z,4.83
2019-05-04T00:51:30.098Z,10.70
2019-05-04T00:52:34.989Z,6.90
2019-05-04T00:53:39.918Z,3.80
2019-05-04T00:54:45.855Z,4.77
2019-05-04T00:55:54.881Z,5.40
2019-05-04T00:56:59.366Z,5.17
2019-05-04T00:58:04.755Z,6.57
2019-05-04T00:59:09.914Z,4.77
2019-05-04T01:00:22.916Z,4.13
2019-05-04T01:01:30.777Z,5.93
2019-05-04T01:02:36.878Z,3.57
2019-05-04T01:03:41.265Z,7.73
2019-05-04T01:04:45.741Z,8.13
2019-05-04T01:05:50.300Z,5.50
2019-05-04T01:06:55.804Z,6.33
2019-05-04T01:08:00.393Z,4.20
2019-05-04T01:09:06.698Z,7.00
2019-05-04T01:10:14.782Z,5.77
2019-05-04T01:11:18.061Z,4.23
2019-05-04T01:12:22.428Z,3.60
2019-05-04T01:13:26.845Z,7.93
2019-05-04T01:14:31.177Z,4.77
2019-05-04T01:15:35.617Z,4.33
2019-05-04T01:16:40.099Z,4.63
2019-05-04T01:17:45.298Z,5.00
2019-05-04T01:18:49.864Z,5.20
2019-05-04T01:19:55.598Z,5.50
2019-05-04T01:21:00.072Z,5.07
2019-05-04T01:22:04.910Z,5.13
2019-05-04T01:23:09.388Z,8.47
2019-05-04T01:24:14.819Z,4.80
2019-05-04T01:25:19.371Z,7.23
2019-05-04T01:26:25.558Z,4.60
2019-05-04T01:27:31.395Z,6.00
2019-05-04T01:28:35.832Z,5.13
2019-05-04T01:29:40.374Z,6.00
2019-05-04T01:30:45.253Z,5.30
2019-05-04T01:31:49.738Z,8.43
2019-05-04T01:32:54.815Z,7.57
2019-05-04T01:34:05.650Z,6.37
2019-05-04T01:35:10.079Z,6.97
2019-05-04T01:36:15.244Z,6.23
2019-05-04T01:37:37.306Z,8.60
2019-05-04T01:38:49.884Z,7.07
2019-05-04T01:40:09.885Z,5.77
2019-05-04T01:41:31.887Z,7.73
2019-05-04T01:42:36.321Z,4.00
2019-05-04T01:43:40.727Z,6.50
2019-05-04T01:44:45.269Z,7.43
2019-05-04T01:45:49.640Z,7.20
2019-05-04T01:46:54.582Z,5.20
2019-05-04T01:48:00.249Z,8.13
2019-05-04T01:49:05.319Z,7.00
2019-05-04T01:50:09.836Z,6.27
2019-05-04T01:51:15.372Z,6.63
2019-05-04T01:52:20.614Z,4.53
2019-05-04T01:53:35.264Z,7.47
2019-05-04T01:54:45.848Z,6.13
2019-05-04T01:55:52.105Z,4.57
2019-05-04T01:57:01.404Z,5.33
2019-05-04T01:58:11.482Z,12.07
2019-05-04T01:59:35.001Z,4.77
2019-05-04T02:00:41.999Z,5.93
2019-05-04T02:01:48.279Z,8.73
2019-05-04T02:02:54.514Z,8.77
2019-05-04T02:03:59.445Z,5.87
2019-05-04T02:05:04.603Z,5.50
2019-05-04T02:06:09.075Z,6.80
2019-05-04T02:07:14.848Z,7.50
2019-05-04T02:08:19.480Z,6.20
2019-05-04T02:09:25.098Z,5.43
2019-05-04T02:10:29.571Z,6.60
2019-05-04T02:11:34.572Z,5.67
2019-05-04T02:12:39.213Z,4.03
2019-05-04T02:13:45.157Z,4.97
2019-05-04T02:14:50.062Z,5.43
2019-05-04T02:15:55.470Z,6.43
2019-05-04T02:16:59.962Z,7.80
2019-05-04T02:18:05.298Z,10.03
2019-05-04T02:19:09.902Z,7.83
2019-05-04T02:20:34.892Z,7.40
2019-05-04T02:21:39.770Z,7.03
2019-05-04T02:22:49.106Z,7.17
2019-05-04T02:23:54.947Z,4.67
2019-05-04T02:25:06.015Z,5.07
2019-05-04T02:26:17.100Z,6.37
2019-05-04T02:27:29.457Z,6.23
2019-05-04T02:28:56.089Z,5.57
2019-05-04T02:30:09.115Z,6.83
2019-05-04T02:31:16.403Z,6.77
2019-05-04T02:32:19.961Z,6.33
2019-05-04T02:33:25.452Z,8.43
2019-05-04T02:34:30.048Z,5.47
2019-05-04T02:35:35.602Z,6.97
2019-05-04T02:36:41.136Z,5.40
2019-05-04T02:38:03.709Z,6.37
2019-05-04T02:38:55.618Z,7.73
2019-05-04T02:39:59.729Z,7.47
2019-05-04T02:41:37.147Z,7.37
2019-05-04T02:42:45.660Z,6.23
2019-05-04T02:43:49.113Z,8.80
2019-05-04T02:44:56.077Z,10.13
2019-05-04T02:46:00.335Z,8.47
2019-05-04T02:47:11.190Z,8.97
2019-05-04T02:48:27.698Z,8.67
2019-05-04T02:49:45.817Z,7.20
2019-05-04T02:50:59.268Z,8.57
2019-05-04T02:52:06.795Z,8.57
2019-05-04T02:53:15.209Z,8.53
2019-05-04T02:54:19.446Z,8.13
2019-05-04T02:55:25.567Z,7.97
2019-05-04T02:56:29.971Z,6.17
2019-05-04T02:57:35.554Z,7.63
2019-05-04T02:58:40.494Z,9.03
2019-05-04T02:59:46.863Z,11.17
2019-05-04T03:00:51.364Z,6.63
2019-05-04T03:01:56.846Z,9.37
2019-05-04T03:03:01.319Z,6.90
2019-05-04T03:04:05.978Z,6.30
2019-05-04T03:05:10.758Z,8.97
2019-05-04T03:06:15.679Z,9.40
2019-05-04T03:07:20.140Z,7.27
2019-05-04T03:08:31.186Z,9.13
2019-05-04T03:09:30.565Z,7.47
2019-05-04T03:10:36.354Z,8.07
2019-05-04T03:11:45.493Z,6.00
2019-05-04T03:12:48.145Z,7.37
2019-05-04T03:13:52.669Z,8.20
2019-05-04T03:14:57.078Z,7.10
2019-05-04T03:16:01.802Z,6.83
2019-05-04T03:17:10.480Z,8.60
2019-05-04T03:18:19.929Z,6.93
2019-05-04T03:19:31.241Z,9.17
2019-05-04T03:20:56.031Z,5.47
2019-05-04T03:22:26.137Z,8.97
2019-05-04T03:23:32.257Z,5.70
2019-05-04T03:24:36.605Z,8.30
2019-05-04T03:25:41.300Z,6.63
2019-05-04T03:26:46.250Z,7.00
2019-05-04T03:27:50.814Z,7.90
2019-05-04T03:28:55.379Z,6.67
2019-05-04T03:30:00.076Z,7.70
2019-05-04T03:31:08.718Z,8.50
2019-05-04T03:32:10.805Z,7.33
2019-05-04T03:33:19.017Z,9.83
2019-05-04T03:34:46.633Z,6.03
2019-05-04T03:35:41.609Z,6.23
2019-05-04T03:36:40.303Z,6.97
2019-05-04T03:37:41.191Z,6.50
2019-05-04T03:38:53.418Z,6.23
2019-05-04T03:39:52.071Z,8.63
2019-05-04T03:40:56.549Z,4.60
2019-05-04T03:42:05.202Z,4.73
2019-05-04T03:43:09.869Z,6.87
2019-05-04T03:44:15.012Z,7.90
2019-05-04T03:45:26.316Z,8.00
2019-05-04T03:46:55.674Z,6.83
2019-05-04T03:48:05.804Z,6.90
2019-05-04T03:49:19.563Z,6.73
2019-05-04T03:50:36.762Z,8.40
2019-05-04T03:51:41.158Z,7.87
2019-05-04T03:52:45.665Z,9.30
2019-05-04T03:53:50.169Z,6.83
2019-05-04T03:54:56.420Z,7.47
2019-05-04T03:56:01.286Z,9.47
2019-05-04T03:57:05.885Z,8.37
2019-05-04T03:58:11.655Z,6.83
2019-05-04T03:59:17.278Z,9.60
2019-05-04T04:00:26.183Z,7.33
2019-05-04T04:01:30.675Z,9.53
2019-05-04T04:02:37.658Z,6.90
2019-05-04T04:03:41.318Z,7.80
2019-05-04T04:04:45.718Z,5.07
2019-05-04T04:05:50.087Z,8.37
2019-05-04T04:06:55.517Z,9.30
2019-05-04T04:08:00.652Z,9.07
2019-05-04T04:09:14.342Z,5.87
2019-05-04T04:10:15.627Z,6.30
2019-05-04T04:11:19.165Z,7.67
2019-05-04T04:12:25.175Z,7.47
2019-05-04T04:13:29.793Z,5.47
2019-05-04T04:14:36.301Z,6.33
2019-05-04T04:15:40.420Z,8.13
2019-05-04T04:17:02.364Z,6.00
2019-05-04T04:18:24.988Z,8.20
2019-05-04T04:19:28.454Z,8.23
2019-05-04T04:20:35.730Z,5.37
2019-05-04T04:21:40.045Z,5.90
2019-05-04T04:22:48.112Z,9.00
2019-05-04T04:24:06.258Z,8.40
2019-05-04T04:25:15.913Z,7.33
2019-05-04T04:26:38.493Z,6.07
2019-05-04T04:27:46.435Z,7.97
2019-05-04T04:28:50.804Z,9.70
2019-05-04T04:29:55.940Z,9.23
2019-05-04T04:31:00.480Z,7.27
2019-05-04T04:32:07.357Z,11.67
2019-05-04T04:33:11.729Z,6.67
2019-05-04T04:34:16.142Z,7.53
2019-05-04T04:35:20.670Z,7.67
2019-05-04T04:36:25.956Z,7.17
2019-05-04T04:37:30.714Z,7.20
2019-05-04T04:38:35.752Z,7.77
2019-05-04T04:39:41.413Z,6.00
2019-05-04T04:40:45.833Z,10.03
2019-05-04T04:41:50.213Z,7.50
2019-05-04T04:42:56.324Z,6.87
2019-05-04T04:44:00.992Z,6.63
2019-05-04T04:45:06.356Z,6.80
2019-05-04T04:46:10.782Z,8.60
2019-05-04T04:47:15.574Z,10.03
2019-05-04T04:48:25.466Z,8.37
2019-05-04T04:49:26.373Z,6.97
2019-05-04T04:50:39.928Z,8.63
2019-05-04T04:51:46.226Z,8.13
2019-05-04T04:52:50.621Z,10.20
2019-05-04T04:53:56.241Z,8.70
2019-05-04T04:55:15.131Z,7.73
2019-05-04T04:56:08.881Z,7.03
2019-05-04T04:57:19.923Z,8.70
2019-05-04T04:58:36.567Z,10.00
2019-05-04T04:59:48.367Z,8.07
2019-05-04T05:00:57.784Z,6.43
2019-05-04T05:02:05.199Z,6.83
2019-05-04T05:03:08.322Z,4.47
2019-05-04T05:04:14.920Z,7.20
2019-05-04T05:05:19.329Z,8.67
2019-05-04T05:06:25.891Z,5.87
2019-05-04T05:07:29.845Z,6.00
2019-05-04T05:08:36.038Z,6.90
2019-05-04T05:09:45.673Z,7.93
2019-05-04T05:10:46.778Z,6.17
2019-05-04T05:11:52.767Z,8.37
2019-05-04T05:12:57.296Z,7.20
2019-05-04T05:14:01.668Z,5.23
2019-05-04T05:15:06.507Z,5.17
2019-05-04T05:16:10.952Z,12.00
2019-05-04T05:17:15.282Z,5.97
2019-05-04T05:18:19.717Z,5.53
2019-05-04T05:19:24.358Z,5.57
2019-05-04T05:20:37.509Z,5.10
2019-05-04T05:21:39.989Z,8.70
2019-05-04T05:22:44.365Z,7.27
2019-05-04T05:23:50.217Z,4.87
2019-05-04T05:24:54.970Z,7.33
2019-05-04T05:25:59.593Z,4.43
2019-05-04T05:27:05.059Z,6.77
2019-05-04T05:28:09.755Z,5.87
2019-05-04T05:29:15.232Z,6.53
2019-05-04T05:30:19.873Z,9.30
2019-05-04T05:31:58.752Z,5.33
2019-05-04T05:33:15.704Z,4.07
2019-05-04T05:34:41.589Z,5.00
2019-05-04T05:35:48.497Z,5.90
2019-05-04T05:36:55.206Z,6.60
2019-05-04T05:37:59.607Z,5.50
2019-05-04T05:39:04.766Z,8.47
2019-05-04T05:40:09.435Z,7.07
2019-05-04T05:41:17.248Z,5.63
2019-05-04T05:42:19.987Z,5.20
2019-05-04T05:43:24.567Z,3.00
2019-05-04T05:44:38.410Z,5.90
2019-05-04T05:45:58.750Z,5.33
2019-05-04T05:47:09.924Z,6.22
2019-05-04T05:48:17.015Z,2.90
2019-05-04T05:49:35.190Z,6.25
2019-05-04T05:51:01.951Z,3.55
2019-05-04T05:52:15.153Z,5.00
2019-05-04T05:53:41.309Z,4.78
2019-05-04T05:55:05.111Z,3.35
2019-05-04T05:56:19.296Z,1.82
2019-05-04T05:57:37.987Z,4.67
2019-05-04T05:58:53.982Z,3.58
2019-05-04T06:00:06.769Z,5.33
2019-05-04T06:01:39.549Z,3.77
2019-05-04T06:02:56.518Z,2.67
2019-05-04T06:04:18.746Z,5.10
2019-05-04T06:05:32.678Z,2.30
2019-05-04T06:06:41.179Z,3.22
2019-05-04T06:08:09.413Z,4.97
2019-05-04T06:09:12.464Z,2.85
2019-05-04T06:10:26.745Z,2.55
2019-05-04T06:11:34.298Z,4.50
2019-05-04T06:12:35.512Z,3.25
2019-05-04T06:13:58.789Z,3.62
2019-05-04T06:15:15.064Z,6.75
2019-05-04T06:16:40.248Z,4.33
2019-05-04T06:17:52.037Z,2.83
2019-05-04T06:19:01.510Z,4.90
2019-05-04T06:20:18.288Z,3.80
2019-05-04T06:21:29.484Z,2.70
2019-05-04T06:22:39.688Z,1.95
2019-05-04T06:23:57.354Z,3.98
2019-05-04T06:26:59.226Z,3.37
2019-05-04T06:28:19.913Z,2.37
2019-05-04T06:29:46.398Z,4.35
2019-05-04T06:31:09.329Z,2.22
2019-05-04T06:32:28.613Z,4.28
2019-05-04T06:33:35.323Z,5.03
2019-05-04T06:34:50.610Z,3.77
2019-05-04T06:36:29.350Z,3.95
2019-05-04T06:37:47.605Z,4.53
2019-05-04T06:39:10.985Z,2.05
2019-05-04T06:40:33.264Z,4.17
2019-05-04T06:41:33.085Z,2.20
2019-05-04T06:42:40.382Z,3.25
2019-05-04T06:44:02.168Z,1.50
2019-05-04T06:45:25.056Z,2.05
2019-05-04T06:46:42.372Z,1.45
2019-05-04T06:47:53.806Z,2.67
2019-05-04T06:49:02.365Z,2.95
2019-05-04T06:50:07.166Z,2.60
2019-05-04T06:51:21.589Z,1.85
2019-05-04T06:52:35.460Z,5.25
2019-05-04T06:53:59.217Z,1.85
2019-05-04T06:55:17.381Z,1.85
2019-05-04T06:56:27.973Z,2.33
2019-05-04T06:58:01.148Z,2.00
2019-05-04T06:59:05.244Z,2.90
2019-05-04T07:00:13.110Z,2.90
2019-05-04T07:01:20.821Z,2.22
2019-05-04T07:02:24.736Z,4.37
2019-05-04T07:03:29.184Z,3.50
2019-05-04T07:04:37.072Z,3.10
2019-05-04T07:05:39.630Z,2.77
2019-05-04T07:06:44.779Z,4.22
2019-05-04T07:07:52.252Z,2.15
2019-05-04T07:08:55.717Z,3.72
2019-05-04T07:10:05.104Z,3.55
2019-05-04T07:11:25.637Z,3.35
2019-05-04T07:12:15.337Z,2.95
2019-05-04T07:13:23.923Z,3.75
2019-05-04T07:14:29.114Z,3.80
2019-05-04T07:15:32.163Z,2.52
2019-05-04T07:16:38.904Z,4.85
2019-05-04T07:17:48.998Z,3.25
2019-05-04T07:18:50.712Z,3.85
2019-05-04T07:20:00.484Z,4.60
2019-05-04T07:21:01.235Z,4.33
2019-05-04T07:22:07.465Z,6.60
2019-05-04T07:23:15.966Z,3.77
2019-05-04T07:24:21.849Z,3.02
2019-05-04T07:25:26.364Z,3.67
2019-05-04T07:26:35.506Z,2.85
2019-05-04T07:27:37.269Z,4.65
2019-05-04T07:28:44.565Z,3.33
2019-05-04T07:29:52.912Z,3.77
2019-05-04T07:31:01.298Z,3.60
2019-05-04T07:32:11.392Z,1.90
2019-05-04T07:33:25.319Z,5.70
2019-05-04T07:34:35.471Z,2.50
2019-05-04T07:35:54.837Z,7.00
2019-05-04T07:37:30.185Z,5.92
2019-05-04T07:38:48.154Z,3.65
2019-05-04T07:40:09.292Z,5.17
2019-05-04T07:41:26.503Z,4.62
2019-05-04T07:42:30.038Z,3.72
2019-05-04T07:43:33.359Z,3.02
2019-05-04T07:44:54.735Z,6.40
2019-05-04T07:46:00.050Z,4.50
2019-05-04T07:47:05.368Z,3.87
2019-05-04T07:48:11.752Z,4.67
2019-05-04T07:49:19.454Z,3.67
2019-05-04T07:50:24.963Z,3.62
2019-05-04T07:51:36.651Z,4.83
2019-05-04T07:52:38.008Z,4.47
2019-05-04T07:53:48.932Z,3.95
2019-05-04T07:54:50.785Z,2.20
2019-05-04T07:55:54.820Z,2.35
2019-05-04T07:56:59.480Z,4.20
2019-05-04T07:58:05.518Z,2.62
2019-05-04T07:59:10.568Z,4.60
2019-05-04T08:00:18.355Z,2.02
2019-05-04T08:01:27.365Z,2.65
2019-05-04T08:02:29.428Z,2.98
2019-05-04T08:03:35.270Z,3.55
2019-05-04T08:04:45.267Z,2.83
2019-05-04T08:05:48.475Z,1.52
2019-05-04T08:06:57.607Z,4.78
2019-05-04T08:08:00.755Z,4.03
2019-05-04T08:09:16.674Z,3.47
2019-05-04T08:10:15.349Z,4.42
2019-05-04T08:11:27.593Z,2.75
2019-05-04T08:12:47.853Z,4.33
2019-05-04T08:13:47.674Z,3.08
2019-05-04T08:15:08.860Z,3.65
2019-05-04T08:15:58.130Z,3.55
2019-05-04T08:17:04.465Z,4.42
2019-05-04T08:18:11.186Z,4.28
2019-05-04T08:19:15.330Z,3.17
2019-05-04T08:20:25.072Z,3.90
2019-05-04T08:21:37.741Z,3.33
2019-05-04T08:22:41.392Z,5.17
2019-05-04T08:23:45.806Z,3.90
2019-05-04T08:24:50.189Z,5.33
2019-05-04T08:25:55.487Z,2.50
2019-05-04T08:27:04.608Z,2.35
2019-05-04T08:28:06.340Z,3.60
2019-05-04T08:29:10.986Z,1.85
2019-05-04T08:30:16.014Z,3.37
2019-05-04T08:31:28.509Z,3.20
2019-05-04T08:32:26.667Z,5.15
2019-05-04T08:33:31.149Z,3.30
2019-05-04T08:34:40.080Z,3.87
2019-05-04T08:35:44.312Z,2.95
2019-05-04T08:36:51.861Z,1.75
2019-05-04T08:37:55.580Z,4.87
2019-05-04T08:39:00.440Z,3.70
2019-05-04T08:40:05.910Z,2.52
2019-05-04T08:41:10.991Z,5.65
2019-05-04T08:42:26.578Z,4.33
2019-05-04T08:43:24.857Z,3.17
2019-05-04T08:44:35.222Z,3.70
2019-05-04T08:45:36.696Z,3.10
2019-05-04T08:46:49.461Z,2.80
2019-05-04T08:47:58.452Z,3.50
2019-05-04T08:49:02.889Z,2.62
2019-05-04T08:50:09.097Z,1.87
2019-05-04T08:51:43.043Z,2.70
2019-05-04T08:52:53.609Z,4.83
2019-05-04T08:53:59.355Z,2.27
2019-05-04T08:55:05.753Z,5.25
2019-05-04T08:56:20.968Z,3.47
2019-05-04T08:57:35.227Z,5.05
2019-05-04T08:59:03.108Z,2.95
2019-05-04T09:00:00.203Z,3.58
2019-05-04T09:01:11.612Z,2.98
2019-05-04T09:02:38.341Z,2.98
2019-05-04T09:03:42.032Z,2.08
2019-05-04T09:04:49.855Z,4.80
2019-05-04T09:06:11.643Z,3.42
2019-05-04T09:07:07.040Z,4.22
2019-05-04T09:08:14.667Z,2.40
2019-05-04T09:09:16.013Z,1.55
2019-05-04T09:10:21.619Z,2.67
2019-05-04T09:11:29.906Z,1.37
2019-05-04T09:12:39.907Z,2.35
2019-05-04T09:13:48.989Z,3.20
2019-05-04T09:14:45.753Z,2.95
2019-05-04T09:15:55.453Z,2.35
2019-05-04T09:16:56.420Z,1.25
2019-05-04T09:18:00.856Z,4.25
2019-05-04T09:19:09.737Z,3.35
2019-05-04T09:20:12.205Z,2.08
2019-05-04T09:21:19.822Z,1.87
2019-05-04T09:22:27.377Z,5.42
2019-05-04T09:23:29.105Z,2.30
2019-05-04T09:24:39.034Z,1.82
2019-05-04T09:25:41.691Z,2.27
2019-05-04T09:26:50.735Z,6.05
2019-05-04T09:27:55.240Z,2.22
2019-05-04T09:28:59.673Z,5.97
2019-05-04T09:30:12.329Z,5.22
2019-05-04T09:31:11.991Z,1.87
2019-05-04T09:32:30.015Z,3.00
2019-05-04T09:33:31.996Z,2.58
2019-05-04T09:34:31.999Z,2.72
2019-05-04T09:35:35.208Z,2.50
2019-05-04T09:36:39.640Z,2.85
2019-05-04T09:37:44.680Z,1.42
2019-05-04T09:38:49.293Z,2.40
2019-05-04T09:39:54.664Z,2.35
2019-05-04T09:41:01.647Z,4.40
2019-05-04T09:42:43.886Z,5.05
2019-05-04T09:43:39.694Z,3.35
2019-05-04T09:44:40.915Z,1.27
2019-05-04T09:45:47.053Z,2.27
2019-05-04T09:46:52.649Z,4.78
2019-05-04T09:47:59.851Z,1.57
2019-05-04T09:49:04.603Z,1.82
2019-05-04T09:50:15.718Z,3.92
2019-05-04T09:51:25.620Z,2.25
2019-05-04T09:52:31.312Z,3.65
2019-05-04T09:53:38.396Z,1.82
2019-05-04T09:54:42.110Z,3.00
2019-05-04T09:55:46.469Z,1.70
2019-05-04T09:57:00.302Z,2.33
2019-05-04T09:58:24.449Z,3.92
2019-05-04T09:59:24.643Z,2.27
2019-05-04T10:00:38.582Z,2.92
2019-05-04T10:01:36.802Z,2.37
2019-05-04T10:02:41.196Z,1.82
2019-05-04T10:03:45.574Z,2.37
2019-05-04T10:04:50.098Z,3.35
2019-05-04T10:05:55.440Z,3.17
2019-05-04T10:07:00.310Z,1.45
2019-05-04T10:08:04.889Z,2.30
2019-05-04T10:09:09.384Z,3.40
2019-05-04T10:10:14.650Z,4.25
2019-05-04T10:11:31.136Z,4.15
2019-05-04T10:12:48.089Z,3.80
2019-05-04T10:14:12.151Z,4.87
2019-05-04T10:15:35.512Z,3.12
2019-05-04T10:16:57.751Z,2.60
2019-05-04T10:18:04.353Z,2.27
2019-05-04T10:19:08.755Z,2.58
2019-05-04T10:20:14.325Z,3.25
2019-05-04T10:21:18.926Z,1.87
2019-05-04T10:22:24.879Z,3.30
2019-05-04T10:23:29.710Z,2.02
2019-05-04T10:24:54.031Z,2.05
2019-05-04T10:26:17.768Z,2.25
2019-05-04T10:27:29.181Z,6.53
2019-05-04T10:28:34.534Z,4.50
2019-05-04T10:29:39.115Z,5.65
2019-05-04T10:30:44.188Z,1.80
2019-05-04T10:31:50.455Z,2.83
2019-05-04T10:32:56.024Z,4.28
2019-05-04T10:34:00.450Z,2.65
2019-05-04T10:35:05.698Z,2.08
2019-05-04T10:36:11.847Z,3.02
2019-05-04T10:37:16.316Z,1.55
2019-05-04T10:38:20.771Z,1.90
2019-05-04T10:39:25.603Z,1.50
2019-05-04T10:40:30.240Z,2.90
2019-05-04T10:41:34.930Z,3.15
2019-05-04T10:42:42.284Z,4.58
2019-05-04T10:43:45.564Z,1.72
2019-05-04T10:44:50.040Z,2.98
2019-05-04T10:45:54.971Z,4.25
2019-05-04T10:46:59.704Z,3.12
2019-05-04T10:48:04.617Z,3.70
2019-05-04T10:49:09.136Z,3.75
2019-05-04T10:50:15.669Z,1.85
2019-05-04T10:51:20.291Z,2.30
2019-05-04T10:52:24.780Z,3.77
2019-05-04T10:53:29.181Z,1.05
2019-05-04T10:54:34.421Z,1.45
2019-05-04T10:55:39.011Z,3.05
2019-05-04T10:56:45.217Z,2.10
2019-05-04T10:57:49.717Z,1.40
2019-05-04T10:58:54.465Z,1.83
2019-05-04T10:59:59.050Z,2.75
2019-05-04T11:01:05.406Z,1.82
2019-05-04T11:02:10.129Z,3.90
2019-05-04T11:03:14.789Z,2.35
2019-05-04T11:04:19.204Z,4.37
2019-05-04T11:05:24.628Z,1.85
2019-05-04T11:06:29.465Z,2.67
2019-05-04T11:07:34.381Z,0.82
2019-05-04T11:08:39.003Z,1.55
2019-05-04T11:09:44.318Z,3.42
2019-05-04T11:10:49.018Z,3.45
2019-05-04T11:11:54.482Z,1.72
2019-05-04T11:12:58.980Z,2.83
2019-05-04T11:14:06.124Z,3.33
2019-05-04T11:15:09.792Z,1.85
2019-05-04T11:16:14.887Z,2.72
2019-05-04T11:17:19.267Z,1.65
2019-05-04T11:18:24.723Z,1.07
2019-05-04T11:19:29.242Z,3.60
2019-05-04T11:20:34.800Z,4.47
2019-05-04T11:21:39.344Z,2.90
2019-05-04T11:22:44.895Z,3.92
2019-05-04T11:23:49.444Z,2.15
2019-05-04T11:25:11.439Z,2.23
2019-05-04T11:26:20.381Z,1.80
2019-05-04T11:27:24.805Z,1.93
2019-05-04T11:28:32.104Z,4.45
2019-05-04T11:29:36.622Z,4.47
2019-05-04T11:30:41.040Z,7.00
2019-05-04T11:31:45.455Z,7.78
2019-05-04T11:32:49.960Z,3.97
2019-05-04T11:33:54.795Z,2.37
2019-05-04T11:35:00.348Z,2.10
2019-05-04T11:36:05.512Z,3.03
2019-05-04T11:37:10.301Z,6.23
2019-05-04T11:38:15.357Z,3.07
2019-05-04T11:39:19.904Z,3.03
2019-05-04T11:40:26.898Z,3.43
2019-05-04T11:41:30.876Z,2.00
2019-05-04T11:42:35.226Z,3.12
2019-05-04T11:43:41.055Z,2.98
2019-05-04T11:44:45.498Z,3.93
2019-05-04T11:45:50.023Z,3.10
2019-05-04T11:46:59.814Z,2.40
2019-05-04T11:48:00.574Z,3.30
2019-05-04T11:49:05.175Z,2.23
2019-05-04T11:50:10.109Z,2.53
2019-05-04T11:51:14.849Z,1.50
2019-05-04T11:52:19.482Z,2.00
2019-05-04T11:53:24.553Z,2.07
2019-05-04T11:54:29.362Z,3.00
2019-05-04T11:55:35.044Z,1.70
2019-05-04T11:56:39.734Z,2.87
2019-05-04T11:57:44.085Z,3.70
2019-05-04T11:58:49.791Z,5.93
2019-05-04T11:59:54.272Z,3.40
2019-05-04T12:00:58.919Z,3.40
2019-05-04T12:02:04.946Z,3.47
2019-05-04T12:03:09.645Z,3.00
2019-05-04T12:04:17.932Z,2.83
2019-05-04T12:05:27.313Z,3.63
2019-05-04T12:06:59.647Z,3.80
2019-05-04T12:08:22.060Z,5.10
2019-05-04T12:09:48.484Z,3.03
2019-05-04T12:10:54.900Z,5.00
2019-05-04T12:11:59.269Z,1.73
2019-05-04T12:13:05.613Z,1.40
2019-05-04T12:14:10.395Z,2.53
2019-05-04T12:15:14.992Z,3.37
2019-05-04T12:16:19.507Z,2.70
2019-05-04T12:17:25.057Z,2.22
2019-05-04T12:18:29.706Z,2.62
2019-05-04T12:19:34.648Z,1.60
2019-05-04T12:20:39.427Z,4.47
2019-05-04T12:21:43.882Z,2.63
2019-05-04T12:22:48.307Z,2.67
2019-05-04T12:23:55.200Z,1.73
2019-05-04T12:24:59.982Z,3.27
2019-05-04T12:26:04.861Z,7.20
2019-05-04T12:27:09.687Z,2.15
2019-05-04T12:28:14.600Z,4.67
2019-05-04T12:29:19.296Z,3.17
2019-05-04T12:30:25.159Z,1.20
2019-05-04T12:31:29.876Z,3.60
2019-05-04T12:32:35.003Z,8.00
2019-05-04T12:33:39.538Z,3.73
2019-05-04T12:34:44.540Z,3.53
2019-05-04T12:35:49.230Z,4.40
2019-05-04T12:36:55.032Z,2.07
2019-05-04T12:37:59.770Z,4.10
2019-05-04T12:39:06.769Z,3.50
2019-05-04T12:40:11.845Z,2.47
2019-05-04T12:41:16.561Z,1.97
2019-05-04T12:42:21.048Z,1.03
2019-05-04T12:43:25.529Z,1.80
2019-05-04T12:44:30.141Z,1.85
2019-05-04T12:45:34.629Z,1.17
2019-05-04T12:46:39.031Z,2.60
2019-05-04T12:47:44.986Z,3.70
2019-05-04T12:48:50.428Z,2.50
2019-05-04T12:49:55.252Z,3.83
2019-05-04T12:50:59.861Z,1.13
2019-05-04T12:52:04.943Z,2.20
2019-05-04T12:53:09.592Z,2.00
2019-05-04T12:54:14.693Z,1.65
2019-05-04T12:55:19.301Z,2.07
2019-05-04T12:56:23.680Z,1.52
2019-05-04T12:57:28.022Z,2.80
2019-05-04T12:58:34.680Z,1.60
2019-05-04T12:59:38.793Z,1.67
2019-05-04T13:00:44.725Z,1.20
2019-05-04T13:01:49.373Z,1.63
2019-05-04T13:02:53.827Z,1.43
2019-05-04T13:03:58.241Z,1.97
2019-05-04T13:05:04.489Z,1.87
2019-05-04T13:06:09.157Z,1.47
2019-05-04T13:07:14.736Z,1.67
2019-05-04T13:08:19.439Z,2.52
2019-05-04T13:09:23.789Z,4.27
2019-05-04T13:10:28.246Z,2.55
2019-05-04T13:11:32.635Z,2.17
2019-05-04T13:12:38.758Z,4.90
2019-05-04T13:13:45.186Z,2.10
2019-05-04T13:14:49.392Z,2.50
2019-05-04T13:15:55.522Z,4.17
2019-05-04T13:17:03.263Z,3.75
2019-05-04T13:18:15.116Z,2.17
2019-05-04T13:19:19.745Z,3.60
2019-05-04T13:20:24.330Z,3.17
2019-05-04T13:21:28.753Z,4.05
2019-05-04T13:22:35.016Z,1.40
2019-05-04T13:23:39.687Z,2.30
2019-05-04T13:24:45.265Z,1.13
2019-05-04T13:25:49.836Z,3.80
2019-05-04T13:26:54.955Z,2.27
2019-05-04T13:28:01.229Z,2.17
2019-05-04T13:29:06.599Z,3.40
2019-05-04T13:30:32.635Z,3.73
2019-05-04T13:31:37.280Z,2.63
2019-05-04T13:32:41.680Z,3.03
2019-05-04T13:33:46.330Z,1.20
2019-05-04T13:34:50.910Z,4.70
2019-05-04T13:35:55.443Z,1.43
2019-05-04T13:36:59.878Z,2.67
2019-05-04T13:38:05.067Z,3.67
2019-05-04T13:39:09.882Z,1.70
2019-05-04T13:40:14.724Z,1.30
2019-05-04T13:41:19.232Z,0.90
2019-05-04T13:42:24.883Z,1.77
2019-05-04T13:43:29.578Z,1.73
2019-05-04T13:44:34.835Z,2.80
2019-05-04T13:45:39.486Z,2.13
2019-05-04T13:46:44.434Z,2.13
2019-05-04T13:47:49.144Z,1.70
2019-05-04T13:48:55.667Z,1.37
2019-05-04T13:50:00.245Z,1.60
2019-05-04T13:51:04.878Z,0.83
2019-05-04T13:52:09.457Z,0.50
2019-05-04T13:53:15.012Z,1.33
2019-05-04T13:54:26.613Z,0.83
2019-05-04T13:55:44.208Z,0.50
2019-05-04T13:57:14.849Z,0.87
2019-05-04T13:58:29.156Z,0.70
2019-05-04T14:00:11.053Z,1.90
2019-05-04T14:01:42.044Z,0.63
2019-05-04T14:03:05.488Z,1.10
2019-05-04T14:04:22.265Z,0.83
2019-05-04T14:05:26.764Z,0.83
2019-05-04T14:06:31.680Z,1.50
2019-05-04T14:07:36.251Z,0.70
2019-05-04T14:08:40.935Z,0.93
2019-05-04T14:09:46.468Z,1.33
2019-05-04T14:10:52.110Z,4.30
2019-05-04T14:11:57.062Z,1.00
2019-05-04T14:13:01.726Z,1.87
2019-05-04T14:14:06.378Z,1.72
2019-05-04T14:15:11.152Z,2.67
2019-05-04T14:16:16.031Z,1.50
2019-05-04T14:17:20.579Z,2.07
2019-05-04T14:18:28.170Z,1.17
2019-05-04T14:19:31.304Z,1.25
2019-05-04T14:20:35.924Z,1.90
2019-05-04T14:21:40.696Z,2.10
2019-05-04T14:22:47.188Z,2.37
2019-05-04T14:23:51.338Z,1.90
2019-05-04T14:24:55.769Z,2.20
2019-05-04T14:26:01.378Z,6.60
2019-05-04T14:27:06.034Z,2.08
2019-05-04T14:28:10.708Z,1.63
2019-05-04T14:29:18.565Z,2.13
2019-05-04T14:30:21.948Z,1.77
2019-05-04T14:31:27.410Z,2.87
2019-05-04T14:32:32.122Z,2.00
2019-05-04T14:33:37.725Z,1.30
2019-05-04T14:34:42.614Z,3.15
2019-05-04T14:35:47.163Z,3.97
2019-05-04T14:36:51.559Z,3.10
2019-05-04T14:37:57.768Z,1.77
2019-05-04T14:39:02.224Z,2.10
2019-05-04T14:40:11.578Z,1.10
2019-05-04T14:41:15.338Z,2.47
2019-05-04T14:42:19.686Z,1.37
2019-05-04T14:43:25.705Z,1.53
2019-05-04T14:44:39.162Z,4.63
2019-05-04T14:46:01.650Z,1.43
2019-05-04T14:47:15.168Z,2.20
2019-05-04T14:48:44.481Z,3.23
2019-05-04T14:49:49.184Z,3.27
2019-05-04T14:50:55.209Z,1.77
2019-05-04T14:52:00.381Z,3.43
2019-05-04T14:53:05.386Z,2.90
2019-05-04T14:54:10.430Z,1.67
2019-05-04T14:55:15.456Z,1.33
2019-05-04T14:56:20.319Z,1.83
2019-05-04T14:57:24.958Z,1.17
2019-05-04T14:58:29.864Z,3.57
2019-05-04T14:59:34.716Z,2.50
2019-05-04T15:00:39.570Z,4.30
2019-05-04T15:01:45.088Z,1.43
2019-05-04T15:02:49.889Z,1.30
2019-05-04T15:03:54.959Z,1.63